sensor_id;sensor_type;location;lat;lon;timestamp;P1;durP1;ratioP1;P2;durP2;ratioP2
73276;SDS011;61501;43.316;5.372;2022-12-29T00:02:12;10.98;;;7.40;;
73276;SDS011;61501;43.316;5.372;2022-12-29T00:04:41;10.23;;;6.68;;
73276;SDS011;61501;43.316;5.372;2022-12-29T00:07:10;9.20;;;6.18;;
73276;SDS011;61501;43.316;5.372;2022-12-29T00:09:36;11.57;;;6.95;;
73276;SDS011;61501;43.316;5.372;2022-12-29T00:12:02;9.43;;;6.00;;
73276;SDS011;61501;43.316;5.372;2022-12-29T00:14:34;11.00;;;6.93;;
73276;SDS011;61501;43.316;5.372;2022-12-29T00:17:18;10.10;;;6.57;;
73276;SDS011;61501;43.316;5.372;2022-12-29T00:19:43;12.80;;;6.07;;
73276;SDS011;61501;43.316;5.372;2022-12-29T00:22:33;9.18;;;5.97;;
73276;SDS011;61501;43.316;5.372;2022-12-29T00:25:17;11.20;;;6.20;;
73276;SDS011;61501;43.316;5.372;2022-12-29T00:28:01;13.18;;;7.10;;
73276;SDS011;61501;43.316;5.372;2022-12-29T00:30:45;11.27;;;6.63;;
73276;SDS011;61501;43.316;5.372;2022-12-29T00:33:29;9.95;;;5.95;;
73276;SDS011;61501;43.316;5.372;2022-12-29T00:36:19;11.07;;;7.07;;
73276;SDS011;61501;43.316;5.372;2022-12-29T00:39:02;12.68;;;7.03;;
73276;SDS011;61501;43.316;5.372;2022-12-29T00:41:50;11.20;;;6.43;;
73276;SDS011;61501;43.316;5.372;2022-12-29T00:44:34;10.02;;;6.10;;
73276;SDS011;61501;43.316;5.372;2022-12-29T00:46:59;10.25;;;6.15;;
73276;SDS011;61501;43.316;5.372;2022-12-29T00:49:29;10.00;;;6.13;;
73276;SDS011;61501;43.316;5.372;2022-12-29T00:51:56;10.15;;;6.72;;
73276;SDS011;61501;43.316;5.372;2022-12-29T00:54:36;10.65;;;6.57;;
73276;SDS011;61501;43.316;5.372;2022-12-29T00:57:03;12.82;;;7.07;;
73276;SDS011;61501;43.316;5.372;2022-12-29T00:59:31;12.70;;;6.20;;
73276;SDS011;61501;43.316;5.372;2022-12-29T01:01:57;11.63;;;5.90;;
73276;SDS011;61501;43.316;5.372;2022-12-29T01:04:24;8.82;;;6.03;;
73276;SDS011;61501;43.316;5.372;2022-12-29T01:06:50;7.43;;;5.90;;
73276;SDS011;61501;43.316;5.372;2022-12-29T01:09:16;10.73;;;5.70;;
73276;SDS011;61501;43.316;5.372;2022-12-29T01:12:02;9.65;;;6.25;;
73276;SDS011;61501;43.316;5.372;2022-12-29T01:14:31;8.75;;;6.38;;
73276;SDS011;61501;43.316;5.372;2022-12-29T01:16:57;8.70;;;5.90;;
73276;SDS011;61501;43.316;5.372;2022-12-29T01:19:23;11.70;;;6.05;;
73276;SDS011;61501;43.316;5.372;2022-12-29T01:21:49;15.25;;;6.70;;
73276;SDS011;61501;43.316;5.372;2022-12-29T01:24:18;12.55;;;6.10;;
73276;SDS011;61501;43.316;5.372;2022-12-29T01:26:46;10.85;;;5.93;;
73276;SDS011;61501;43.316;5.372;2022-12-29T01:29:13;10.50;;;5.60;;
73276;SDS011;61501;43.316;5.372;2022-12-29T01:31:39;10.43;;;5.80;;
73276;SDS011;61501;43.316;5.372;2022-12-29T01:34:05;11.23;;;6.20;;
73276;SDS011;61501;43.316;5.372;2022-12-29T01:36:30;10.95;;;6.50;;
73276;SDS011;61501;43.316;5.372;2022-12-29T01:38:56;13.70;;;7.03;;
73276;SDS011;61501;43.316;5.372;2022-12-29T01:41:22;10.90;;;6.75;;
73276;SDS011;61501;43.316;5.372;2022-12-29T01:43:49;12.27;;;6.18;;
73276;SDS011;61501;43.316;5.372;2022-12-29T01:48:49;9.18;;;6.03;;
73276;SDS011;61501;43.316;5.372;2022-12-29T01:51:19;11.90;;;6.90;;
73276;SDS011;61501;43.316;5.372;2022-12-29T01:53:47;8.90;;;6.05;;
73276;SDS011;61501;43.316;5.372;2022-12-29T01:56:14;10.23;;;6.10;;
73276;SDS011;61501;43.316;5.372;2022-12-29T01:58:45;14.73;;;6.78;;
73276;SDS011;61501;43.316;5.372;2022-12-29T02:01:14;12.52;;;6.57;;
73276;SDS011;61501;43.316;5.372;2022-12-29T02:03:43;9.15;;;5.80;;
73276;SDS011;61501;43.316;5.372;2022-12-29T02:06:10;8.77;;;5.53;;
73276;SDS011;61501;43.316;5.372;2022-12-29T02:08:42;10.23;;;5.30;;
73276;SDS011;61501;43.316;5.372;2022-12-29T02:11:11;14.00;;;5.88;;
73276;SDS011;61501;43.316;5.372;2022-12-29T02:13:37;10.70;;;5.35;;
73276;SDS011;61501;43.316;5.372;2022-12-29T02:16:09;12.70;;;5.82;;
73276;SDS011;61501;43.316;5.372;2022-12-29T02:40:48;13.60;;;5.60;;
73276;SDS011;61501;43.316;5.372;2022-12-29T02:49:19;12.43;;;5.82;;
73276;SDS011;61501;43.316;5.372;2022-12-29T02:54:25;11.18;;;5.32;;
73276;SDS011;61501;43.316;5.372;2022-12-29T02:59:48;11.93;;;5.40;;
73276;SDS011;61501;43.316;5.372;2022-12-29T03:02:22;14.15;;;5.50;;
73276;SDS011;61501;43.316;5.372;2022-12-29T03:05:17;7.97;;;5.25;;
73276;SDS011;61501;43.316;5.372;2022-12-29T03:08:06;10.45;;;5.00;;
73276;SDS011;61501;43.316;5.372;2022-12-29T03:10:58;16.48;;;5.50;;
73276;SDS011;61501;43.316;5.372;2022-12-29T03:13:39;14.52;;;5.82;;
73276;SDS011;61501;43.316;5.372;2022-12-29T03:16:42;10.57;;;5.07;;
73276;SDS011;61501;43.316;5.372;2022-12-29T03:19:15;11.95;;;5.13;;
73276;SDS011;61501;43.316;5.372;2022-12-29T03:24:41;14.13;;;5.53;;
73276;SDS011;61501;43.316;5.372;2022-12-29T03:27:13;13.95;;;5.68;;
73276;SDS011;61501;43.316;5.372;2022-12-29T03:29:44;13.90;;;5.47;;
73276;SDS011;61501;43.316;5.372;2022-12-29T03:32:18;15.55;;;5.78;;
73276;SDS011;61501;43.316;5.372;2022-12-29T03:34:46;16.35;;;6.72;;
73276;SDS011;61501;43.316;5.372;2022-12-29T03:37:14;10.93;;;5.53;;
73276;SDS011;61501;43.316;5.372;2022-12-29T03:39:43;12.93;;;5.70;;
73276;SDS011;61501;43.316;5.372;2022-12-29T03:42:19;16.00;;;5.88;;
73276;SDS011;61501;43.316;5.372;2022-12-29T03:44:48;11.38;;;5.82;;
73276;SDS011;61501;43.316;5.372;2022-12-29T03:47:20;10.55;;;6.30;;
73276;SDS011;61501;43.316;5.372;2022-12-29T03:49:46;12.25;;;6.03;;
73276;SDS011;61501;43.316;5.372;2022-12-29T03:52:12;9.07;;;5.30;;
73276;SDS011;61501;43.316;5.372;2022-12-29T03:54:38;13.95;;;6.10;;
73276;SDS011;61501;43.316;5.372;2022-12-29T03:57:03;13.13;;;5.55;;
73276;SDS011;61501;43.316;5.372;2022-12-29T03:59:29;16.55;;;6.18;;
73276;SDS011;61501;43.316;5.372;2022-12-29T04:01:55;13.57;;;6.57;;
73276;SDS011;61501;43.316;5.372;2022-12-29T04:04:20;11.90;;;6.20;;
73276;SDS011;61501;43.316;5.372;2022-12-29T04:06:46;12.73;;;6.10;;
73276;SDS011;61501;43.316;5.372;2022-12-29T04:09:11;14.73;;;6.00;;
73276;SDS011;61501;43.316;5.372;2022-12-29T04:11:37;14.85;;;5.53;;
73276;SDS011;61501;43.316;5.372;2022-12-29T04:14:03;15.45;;;6.45;;
73276;SDS011;61501;43.316;5.372;2022-12-29T04:16:28;14.77;;;6.53;;
73276;SDS011;61501;43.316;5.372;2022-12-29T04:18:54;12.15;;;5.80;;
73276;SDS011;61501;43.316;5.372;2022-12-29T04:21:19;16.10;;;6.78;;
73276;SDS011;61501;43.316;5.372;2022-12-29T04:23:45;12.97;;;6.40;;
73276;SDS011;61501;43.316;5.372;2022-12-29T04:26:11;14.38;;;6.47;;
73276;SDS011;61501;43.316;5.372;2022-12-29T04:28:37;15.90;;;6.43;;
73276;SDS011;61501;43.316;5.372;2022-12-29T04:31:03;16.52;;;6.78;;
73276;SDS011;61501;43.316;5.372;2022-12-29T04:33:29;13.05;;;6.00;;
73276;SDS011;61501;43.316;5.372;2022-12-29T04:35:55;12.63;;;6.55;;
73276;SDS011;61501;43.316;5.372;2022-12-29T04:38:21;11.57;;;6.55;;
73276;SDS011;61501;43.316;5.372;2022-12-29T04:40:48;14.05;;;6.65;;
73276;SDS011;61501;43.316;5.372;2022-12-29T04:43:14;18.23;;;6.72;;
73276;SDS011;61501;43.316;5.372;2022-12-29T04:45:44;14.70;;;7.30;;
73276;SDS011;61501;43.316;5.372;2022-12-29T04:48:10;18.15;;;7.55;;
73276;SDS011;61501;43.316;5.372;2022-12-29T04:50:36;19.77;;;8.30;;
73276;SDS011;61501;43.316;5.372;2022-12-29T04:53:02;16.27;;;7.25;;
73276;SDS011;61501;43.316;5.372;2022-12-29T04:55:28;18.55;;;6.95;;
73276;SDS011;61501;43.316;5.372;2022-12-29T04:57:53;21.30;;;8.55;;
73276;SDS011;61501;43.316;5.372;2022-12-29T05:00:19;21.15;;;8.75;;
73276;SDS011;61501;43.316;5.372;2022-12-29T05:02:45;14.68;;;7.60;;
73276;SDS011;61501;43.316;5.372;2022-12-29T05:05:10;16.00;;;7.25;;
73276;SDS011;61501;43.316;5.372;2022-12-29T05:07:36;16.27;;;7.47;;
73276;SDS011;61501;43.316;5.372;2022-12-29T05:10:02;15.45;;;7.57;;
73276;SDS011;61501;43.316;5.372;2022-12-29T05:12:32;16.90;;;7.82;;
73276;SDS011;61501;43.316;5.372;2022-12-29T05:14:59;14.73;;;7.88;;
73276;SDS011;61501;43.316;5.372;2022-12-29T05:17:25;15.05;;;7.95;;
73276;SDS011;61501;43.316;5.372;2022-12-29T05:19:51;16.52;;;8.00;;
73276;SDS011;61501;43.316;5.372;2022-12-29T05:22:16;17.02;;;7.75;;
73276;SDS011;61501;43.316;5.372;2022-12-29T05:24:42;14.98;;;7.65;;
73276;SDS011;61501;43.316;5.372;2022-12-29T05:27:08;18.02;;;8.10;;
73276;SDS011;61501;43.316;5.372;2022-12-29T05:29:34;20.98;;;7.65;;
73276;SDS011;61501;43.316;5.372;2022-12-29T05:31:59;16.30;;;7.90;;
73276;SDS011;61501;43.316;5.372;2022-12-29T05:34:25;17.70;;;8.40;;
73276;SDS011;61501;43.316;5.372;2022-12-29T05:36:51;18.38;;;7.95;;
73276;SDS011;61501;43.316;5.372;2022-12-29T05:39:17;14.98;;;8.02;;
73276;SDS011;61501;43.316;5.372;2022-12-29T05:41:43;17.33;;;8.70;;
73276;SDS011;61501;43.316;5.372;2022-12-29T05:44:09;17.17;;;8.98;;
73276;SDS011;61501;43.316;5.372;2022-12-29T05:46:35;17.25;;;9.82;;
73276;SDS011;61501;43.316;5.372;2022-12-29T05:49:01;17.33;;;8.75;;
73276;SDS011;61501;43.316;5.372;2022-12-29T05:51:27;15.90;;;8.73;;
73276;SDS011;61501;43.316;5.372;2022-12-29T05:53:52;20.77;;;9.45;;
73276;SDS011;61501;43.316;5.372;2022-12-29T05:56:18;14.02;;;9.35;;
73276;SDS011;61501;43.316;5.372;2022-12-29T05:58:43;14.25;;;9.73;;
73276;SDS011;61501;43.316;5.372;2022-12-29T06:01:09;15.82;;;9.68;;
73276;SDS011;61501;43.316;5.372;2022-12-29T06:03:35;14.38;;;8.32;;
73276;SDS011;61501;43.316;5.372;2022-12-29T06:06:00;14.07;;;8.80;;
73276;SDS011;61501;43.316;5.372;2022-12-29T06:08:26;12.57;;;8.93;;
73276;SDS011;61501;43.316;5.372;2022-12-29T06:10:52;13.57;;;9.02;;
73276;SDS011;61501;43.316;5.372;2022-12-29T06:13:17;12.95;;;9.02;;
73276;SDS011;61501;43.316;5.372;2022-12-29T06:15:43;15.88;;;9.35;;
73276;SDS011;61501;43.316;5.372;2022-12-29T06:18:09;14.00;;;8.20;;
73276;SDS011;61501;43.316;5.372;2022-12-29T06:20:34;14.27;;;9.13;;
73276;SDS011;61501;43.316;5.372;2022-12-29T06:23:00;13.70;;;8.77;;
73276;SDS011;61501;43.316;5.372;2022-12-29T06:25:26;15.00;;;9.25;;
73276;SDS011;61501;43.316;5.372;2022-12-29T06:27:51;16.48;;;9.05;;
73276;SDS011;61501;43.316;5.372;2022-12-29T06:30:17;14.68;;;9.23;;
73276;SDS011;61501;43.316;5.372;2022-12-29T06:32:43;12.75;;;9.20;;
73276;SDS011;61501;43.316;5.372;2022-12-29T06:35:09;14.75;;;9.52;;
73276;SDS011;61501;43.316;5.372;2022-12-29T06:37:34;15.30;;;10.05;;
73276;SDS011;61501;43.316;5.372;2022-12-29T06:40:00;16.55;;;9.63;;
73276;SDS011;61501;43.316;5.372;2022-12-29T06:42:26;18.67;;;9.13;;
73276;SDS011;61501;43.316;5.372;2022-12-29T06:44:52;10.73;;;8.40;;
73276;SDS011;61501;43.316;5.372;2022-12-29T06:47:18;10.23;;;8.75;;
73276;SDS011;61501;43.316;5.372;2022-12-29T06:49:44;14.55;;;9.10;;
73276;SDS011;61501;43.316;5.372;2022-12-29T06:52:10;15.15;;;9.02;;
73276;SDS011;61501;43.316;5.372;2022-12-29T06:54:35;12.40;;;9.45;;
73276;SDS011;61501;43.316;5.372;2022-12-29T06:57:01;16.10;;;10.05;;
73276;SDS011;61501;43.316;5.372;2022-12-29T06:59:27;17.00;;;9.63;;
73276;SDS011;61501;43.316;5.372;2022-12-29T07:01:52;14.75;;;9.68;;
73276;SDS011;61501;43.316;5.372;2022-12-29T07:04:19;14.40;;;10.02;;
73276;SDS011;61501;43.316;5.372;2022-12-29T07:06:45;18.95;;;10.80;;
73276;SDS011;61501;43.316;5.372;2022-12-29T07:09:10;14.43;;;9.25;;
73276;SDS011;61501;43.316;5.372;2022-12-29T07:11:36;14.75;;;9.30;;
73276;SDS011;61501;43.316;5.372;2022-12-29T07:14:02;12.43;;;10.13;;
73276;SDS011;61501;43.316;5.372;2022-12-29T07:16:28;17.30;;;9.80;;
73276;SDS011;61501;43.316;5.372;2022-12-29T07:18:55;16.33;;;11.10;;
73276;SDS011;61501;43.316;5.372;2022-12-29T07:21:21;19.20;;;11.45;;
73276;SDS011;61501;43.316;5.372;2022-12-29T07:23:47;17.67;;;10.90;;
73276;SDS011;61501;43.316;5.372;2022-12-29T07:26:13;16.92;;;11.85;;
73276;SDS011;61501;43.316;5.372;2022-12-29T07:28:42;15.38;;;10.45;;
73276;SDS011;61501;43.316;5.372;2022-12-29T07:31:18;20.30;;;11.70;;
73276;SDS011;61501;43.316;5.372;2022-12-29T07:33:46;20.52;;;11.55;;
73276;SDS011;61501;43.316;5.372;2022-12-29T07:36:12;17.20;;;10.18;;
73276;SDS011;61501;43.316;5.372;2022-12-29T07:38:41;17.23;;;11.02;;
73276;SDS011;61501;43.316;5.372;2022-12-29T07:41:07;14.38;;;10.55;;
73276;SDS011;61501;43.316;5.372;2022-12-29T07:43:33;18.05;;;10.70;;
73276;SDS011;61501;43.316;5.372;2022-12-29T07:45:59;16.00;;;10.27;;
73276;SDS011;61501;43.316;5.372;2022-12-29T07:48:25;15.55;;;10.82;;
73276;SDS011;61501;43.316;5.372;2022-12-29T07:50:51;17.35;;;11.55;;
73276;SDS011;61501;43.316;5.372;2022-12-29T07:53:20;17.40;;;10.55;;
73276;SDS011;61501;43.316;5.372;2022-12-29T07:55:46;22.60;;;10.93;;
73276;SDS011;61501;43.316;5.372;2022-12-29T07:58:22;15.07;;;9.90;;
73276;SDS011;61501;43.316;5.372;2022-12-29T08:00:52;17.25;;;10.60;;
73276;SDS011;61501;43.316;5.372;2022-12-29T08:03:19;17.85;;;11.38;;
73276;SDS011;61501;43.316;5.372;2022-12-29T08:05:44;20.15;;;13.90;;
73276;SDS011;61501;43.316;5.372;2022-12-29T08:08:10;18.52;;;10.40;;
73276;SDS011;61501;43.316;5.372;2022-12-29T08:10:35;14.48;;;11.02;;
73276;SDS011;61501;43.316;5.372;2022-12-29T08:13:01;18.30;;;10.73;;
73276;SDS011;61501;43.316;5.372;2022-12-29T08:15:27;17.52;;;10.75;;
73276;SDS011;61501;43.316;5.372;2022-12-29T08:17:52;17.98;;;10.52;;
73276;SDS011;61501;43.316;5.372;2022-12-29T08:20:18;17.95;;;10.88;;
73276;SDS011;61501;43.316;5.372;2022-12-29T08:22:44;12.90;;;10.50;;
73276;SDS011;61501;43.316;5.372;2022-12-29T08:25:09;17.60;;;10.80;;
73276;SDS011;61501;43.316;5.372;2022-12-29T08:27:35;18.63;;;12.00;;
73276;SDS011;61501;43.316;5.372;2022-12-29T08:30:01;21.85;;;12.75;;
73276;SDS011;61501;43.316;5.372;2022-12-29T08:32:27;17.17;;;10.88;;
73276;SDS011;61501;43.316;5.372;2022-12-29T08:34:53;15.73;;;12.02;;
73276;SDS011;61501;43.316;5.372;2022-12-29T08:37:19;15.40;;;11.32;;
73276;SDS011;61501;43.316;5.372;2022-12-29T08:39:44;19.17;;;11.63;;
73276;SDS011;61501;43.316;5.372;2022-12-29T08:42:10;14.75;;;10.95;;
73276;SDS011;61501;43.316;5.372;2022-12-29T08:44:36;16.58;;;11.07;;
73276;SDS011;61501;43.316;5.372;2022-12-29T08:47:01;16.42;;;10.77;;
73276;SDS011;61501;43.316;5.372;2022-12-29T08:49:27;17.00;;;11.60;;
73276;SDS011;61501;43.316;5.372;2022-12-29T08:51:53;16.10;;;10.63;;
73276;SDS011;61501;43.316;5.372;2022-12-29T08:54:18;13.30;;;10.38;;
73276;SDS011;61501;43.316;5.372;2022-12-29T08:56:44;17.88;;;10.85;;
73276;SDS011;61501;43.316;5.372;2022-12-29T08:59:10;16.80;;;10.43;;
73276;SDS011;61501;43.316;5.372;2022-12-29T09:01:35;18.63;;;10.75;;
73276;SDS011;61501;43.316;5.372;2022-12-29T09:04:05;16.45;;;10.90;;
73276;SDS011;61501;43.316;5.372;2022-12-29T09:06:31;14.80;;;9.90;;
73276;SDS011;61501;43.316;5.372;2022-12-29T09:08:57;16.42;;;10.35;;
73276;SDS011;61501;43.316;5.372;2022-12-29T09:11:24;16.08;;;10.60;;
73276;SDS011;61501;43.316;5.372;2022-12-29T09:13:50;14.70;;;10.43;;
73276;SDS011;61501;43.316;5.372;2022-12-29T09:16:17;13.93;;;9.38;;
73276;SDS011;61501;43.316;5.372;2022-12-29T09:18:45;14.10;;;9.55;;
73276;SDS011;61501;43.316;5.372;2022-12-29T09:21:11;16.33;;;8.20;;
73276;SDS011;61501;43.316;5.372;2022-12-29T09:23:37;11.77;;;8.65;;
73276;SDS011;61501;43.316;5.372;2022-12-29T09:26:03;13.45;;;9.02;;
73276;SDS011;61501;43.316;5.372;2022-12-29T09:28:29;14.57;;;9.65;;
73276;SDS011;61501;43.316;5.372;2022-12-29T09:30:56;12.90;;;9.23;;
73276;SDS011;61501;43.316;5.372;2022-12-29T09:33:22;14.15;;;9.45;;
73276;SDS011;61501;43.316;5.372;2022-12-29T09:35:52;14.50;;;9.60;;
73276;SDS011;61501;43.316;5.372;2022-12-29T09:38:19;11.15;;;8.30;;
73276;SDS011;61501;43.316;5.372;2022-12-29T09:40:46;14.75;;;10.13;;
73276;SDS011;61501;43.316;5.372;2022-12-29T09:46:32;16.58;;;10.48;;
73276;SDS011;61501;43.316;5.372;2022-12-29T09:51:31;21.52;;;11.75;;
73276;SDS011;61501;43.316;5.372;2022-12-29T09:54:00;17.00;;;10.93;;
73276;SDS011;61501;43.316;5.372;2022-12-29T09:56:48;12.57;;;9.43;;
73276;SDS011;61501;43.316;5.372;2022-12-29T09:59:20;14.35;;;9.25;;
73276;SDS011;61501;43.316;5.372;2022-12-29T10:01:58;14.73;;;10.18;;
73276;SDS011;61501;43.316;5.372;2022-12-29T10:04:47;19.65;;;10.35;;
73276;SDS011;61501;43.316;5.372;2022-12-29T10:07:27;40.15;;;15.23;;
73276;SDS011;61501;43.316;5.372;2022-12-29T10:10:13;17.35;;;10.23;;
73276;SDS011;61501;43.316;5.372;2022-12-29T10:21:15;12.70;;;8.68;;
73276;SDS011;61501;43.316;5.372;2022-12-29T10:23:58;15.95;;;10.35;;
73276;SDS011;61501;43.316;5.372;2022-12-29T10:26:31;10.40;;;8.30;;
73276;SDS011;61501;43.316;5.372;2022-12-29T10:31:39;26.42;;;10.68;;
73276;SDS011;61501;43.316;5.372;2022-12-29T10:36:54;12.75;;;8.10;;
73276;SDS011;61501;43.316;5.372;2022-12-29T10:39:39;14.85;;;8.82;;
73276;SDS011;61501;43.316;5.372;2022-12-29T10:45:04;34.42;;;11.90;;
73276;SDS011;61501;43.316;5.372;2022-12-29T10:47:35;18.55;;;10.05;;
73276;SDS011;61501;43.316;5.372;2022-12-29T10:50:16;50.00;;;13.23;;
73276;SDS011;61501;43.316;5.372;2022-12-29T10:52:43;30.70;;;10.15;;
73276;SDS011;61501;43.316;5.372;2022-12-29T10:55:12;22.98;;;9.40;;
73276;SDS011;61501;43.316;5.372;2022-12-29T10:57:44;14.52;;;7.97;;
73276;SDS011;61501;43.316;5.372;2022-12-29T11:05:52;14.68;;;8.00;;
73276;SDS011;61501;43.316;5.372;2022-12-29T11:08:38;15.65;;;9.23;;
73276;SDS011;61501;43.316;5.372;2022-12-29T11:11:10;11.30;;;7.22;;
73276;SDS011;61501;43.316;5.372;2022-12-29T11:13:49;10.60;;;7.03;;
73276;SDS011;61501;43.316;5.372;2022-12-29T11:16:34;12.60;;;7.20;;
73276;SDS011;61501;43.316;5.372;2022-12-29T11:19:01;13.35;;;8.15;;
73276;SDS011;61501;43.316;5.372;2022-12-29T11:21:31;13.00;;;7.95;;
73276;SDS011;61501;43.316;5.372;2022-12-29T11:24:03;12.55;;;7.00;;
73276;SDS011;61501;43.316;5.372;2022-12-29T11:26:30;11.15;;;7.13;;
73276;SDS011;61501;43.316;5.372;2022-12-29T11:31:29;11.73;;;6.18;;
73276;SDS011;61501;43.316;5.372;2022-12-29T11:33:55;12.02;;;6.95;;
73276;SDS011;61501;43.316;5.372;2022-12-29T11:36:21;11.23;;;6.90;;
73276;SDS011;61501;43.316;5.372;2022-12-29T11:38:52;14.13;;;6.75;;
73276;SDS011;61501;43.316;5.372;2022-12-29T11:41:29;11.95;;;6.70;;
73276;SDS011;61501;43.316;5.372;2022-12-29T11:43:57;14.05;;;7.45;;
73276;SDS011;61501;43.316;5.372;2022-12-29T11:46:36;27.80;;;7.70;;
73276;SDS011;61501;43.316;5.372;2022-12-29T11:49:10;9.45;;;6.55;;
73276;SDS011;61501;43.316;5.372;2022-12-29T11:51:41;11.95;;;6.93;;
73276;SDS011;61501;43.316;5.372;2022-12-29T11:54:13;9.65;;;5.97;;
73276;SDS011;61501;43.316;5.372;2022-12-29T11:57:08;17.58;;;6.38;;
73276;SDS011;61501;43.316;5.372;2022-12-29T11:59:38;12.60;;;7.00;;
73276;SDS011;61501;43.316;5.372;2022-12-29T12:04:54;10.50;;;6.40;;
73276;SDS011;61501;43.316;5.372;2022-12-29T12:08:09;12.13;;;6.93;;
73276;SDS011;61501;43.316;5.372;2022-12-29T12:16:17;8.73;;;6.18;;
73276;SDS011;61501;43.316;5.372;2022-12-29T12:18:49;10.38;;;6.65;;
73276;SDS011;61501;43.316;5.372;2022-12-29T12:26:48;8.88;;;5.97;;
73276;SDS011;61501;43.316;5.372;2022-12-29T12:29:34;11.85;;;5.55;;
73276;SDS011;61501;43.316;5.372;2022-12-29T12:32:20;8.68;;;5.85;;
73276;SDS011;61501;43.316;5.372;2022-12-29T12:59:52;8.93;;;5.72;;
73276;SDS011;61501;43.316;5.372;2022-12-29T13:11:14;12.38;;;6.10;;
73276;SDS011;61501;43.316;5.372;2022-12-29T13:17:17;13.18;;;6.47;;
73276;SDS011;61501;43.316;5.372;2022-12-29T13:25:33;11.10;;;5.82;;
73276;SDS011;61501;43.316;5.372;2022-12-29T13:28:29;12.45;;;5.90;;
73276;SDS011;61501;43.316;5.372;2022-12-29T13:38:48;10.00;;;5.20;;
73276;SDS011;61501;43.316;5.372;2022-12-29T13:43:57;9.55;;;5.30;;
73276;SDS011;61501;43.316;5.372;2022-12-29T13:46:27;12.15;;;7.55;;
73276;SDS011;61501;43.316;5.372;2022-12-29T13:49:00;12.57;;;6.20;;
73276;SDS011;61501;43.316;5.372;2022-12-29T13:51:32;12.15;;;7.45;;
73276;SDS011;61501;43.316;5.372;2022-12-29T13:59:41;10.23;;;6.20;;
73276;SDS011;61501;43.316;5.372;2022-12-29T14:07:46;14.15;;;6.57;;
73276;SDS011;61501;43.316;5.372;2022-12-29T14:13:42;10.50;;;7.03;;
73276;SDS011;61501;43.316;5.372;2022-12-29T14:15:58;11.75;;;6.93;;
73276;SDS011;61501;43.316;5.372;2022-12-29T14:18:28;15.25;;;7.95;;
73276;SDS011;61501;43.316;5.372;2022-12-29T14:23:41;16.85;;;8.15;;
73276;SDS011;61501;43.316;5.372;2022-12-29T14:26:10;14.02;;;8.18;;
73276;SDS011;61501;43.316;5.372;2022-12-29T14:28:47;15.63;;;7.97;;
73276;SDS011;61501;43.316;5.372;2022-12-29T14:33:39;11.93;;;7.28;;
73276;SDS011;61501;43.316;5.372;2022-12-29T14:36:22;16.17;;;7.43;;
73276;SDS011;61501;43.316;5.372;2022-12-29T14:38:58;14.25;;;7.18;;
73276;SDS011;61501;43.316;5.372;2022-12-29T14:41:25;14.35;;;7.20;;
73276;SDS011;61501;43.316;5.372;2022-12-29T14:43:59;15.15;;;7.72;;
73276;SDS011;61501;43.316;5.372;2022-12-29T14:49:22;15.57;;;7.72;;
73276;SDS011;61501;43.316;5.372;2022-12-29T14:51:52;15.65;;;9.43;;
73276;SDS011;61501;43.316;5.372;2022-12-29T14:57:07;11.35;;;6.55;;
73276;SDS011;61501;43.316;5.372;2022-12-29T14:59:38;15.32;;;7.20;;
73276;SDS011;61501;43.316;5.372;2022-12-29T15:02:11;13.45;;;7.00;;
73276;SDS011;61501;43.316;5.372;2022-12-29T15:04:43;13.32;;;7.47;;
73276;SDS011;61501;43.316;5.372;2022-12-29T15:07:11;12.27;;;6.63;;
73276;SDS011;61501;43.316;5.372;2022-12-29T15:09:39;12.98;;;6.90;;
73276;SDS011;61501;43.316;5.372;2022-12-29T15:12:18;14.45;;;6.65;;
73276;SDS011;61501;43.316;5.372;2022-12-29T15:14:52;15.25;;;6.95;;
73276;SDS011;61501;43.316;5.372;2022-12-29T15:19:58;11.05;;;6.35;;
73276;SDS011;61501;43.316;5.372;2022-12-29T15:22:45;11.23;;;6.68;;
73276;SDS011;61501;43.316;5.372;2022-12-29T15:25:15;11.88;;;6.35;;
73276;SDS011;61501;43.316;5.372;2022-12-29T15:27:42;11.38;;;6.53;;
73276;SDS011;61501;43.316;5.372;2022-12-29T15:30:17;10.73;;;6.35;;
73276;SDS011;61501;43.316;5.372;2022-12-29T15:32:47;11.30;;;5.43;;
73276;SDS011;61501;43.316;5.372;2022-12-29T15:35:25;12.52;;;6.63;;
73276;SDS011;61501;43.316;5.372;2022-12-29T15:37:59;14.40;;;6.88;;
73276;SDS011;61501;43.316;5.372;2022-12-29T15:45:38;14.55;;;7.55;;
73276;SDS011;61501;43.316;5.372;2022-12-29T15:48:04;12.50;;;5.53;;
73276;SDS011;61501;43.316;5.372;2022-12-29T15:50:34;13.55;;;6.28;;
73276;SDS011;61501;43.316;5.372;2022-12-29T15:53:02;11.30;;;6.05;;
73276;SDS011;61501;43.316;5.372;2022-12-29T15:55:35;13.32;;;6.57;;
73276;SDS011;61501;43.316;5.372;2022-12-29T15:58:04;11.35;;;6.07;;
73276;SDS011;61501;43.316;5.372;2022-12-29T16:00:34;15.45;;;6.97;;
73276;SDS011;61501;43.316;5.372;2022-12-29T16:03:04;16.98;;;7.50;;
73276;SDS011;61501;43.316;5.372;2022-12-29T16:05:37;16.85;;;7.45;;
73276;SDS011;61501;43.316;5.372;2022-12-29T16:08:15;13.32;;;7.25;;
73276;SDS011;61501;43.316;5.372;2022-12-29T16:10:56;12.68;;;8.13;;
73276;SDS011;61501;43.316;5.372;2022-12-29T16:16:17;12.50;;;7.57;;
73276;SDS011;61501;43.316;5.372;2022-12-29T16:18:45;13.75;;;7.25;;
73276;SDS011;61501;43.316;5.372;2022-12-29T16:21:21;14.00;;;7.70;;
73276;SDS011;61501;43.316;5.372;2022-12-29T16:23:51;13.15;;;7.97;;
73276;SDS011;61501;43.316;5.372;2022-12-29T16:26:23;11.40;;;7.70;;
73276;SDS011;61501;43.316;5.372;2022-12-29T16:28:50;13.80;;;7.55;;
73276;SDS011;61501;43.316;5.372;2022-12-29T16:31:24;11.88;;;7.30;;
73276;SDS011;61501;43.316;5.372;2022-12-29T16:33:58;16.15;;;7.25;;
73276;SDS011;61501;43.316;5.372;2022-12-29T16:36:59;13.15;;;7.70;;
73276;SDS011;61501;43.316;5.372;2022-12-29T16:39:28;14.82;;;7.55;;
73276;SDS011;61501;43.316;5.372;2022-12-29T16:50:31;13.90;;;8.32;;
73276;SDS011;61501;43.316;5.372;2022-12-29T16:52:58;15.77;;;8.15;;
73276;SDS011;61501;43.316;5.372;2022-12-29T16:55:25;13.32;;;7.78;;
73276;SDS011;61501;43.316;5.372;2022-12-29T16:57:51;10.52;;;7.10;;
73276;SDS011;61501;43.316;5.372;2022-12-29T17:00:21;13.02;;;7.03;;
73276;SDS011;61501;43.316;5.372;2022-12-29T17:02:49;12.85;;;7.95;;
73276;SDS011;61501;43.316;5.372;2022-12-29T17:05:17;13.13;;;8.10;;
73276;SDS011;61501;43.316;5.372;2022-12-29T17:07:44;13.52;;;8.85;;
73276;SDS011;61501;43.316;5.372;2022-12-29T17:10:10;16.77;;;9.05;;
73276;SDS011;61501;43.316;5.372;2022-12-29T17:12:37;14.68;;;8.70;;
73276;SDS011;61501;43.316;5.372;2022-12-29T17:15:07;10.75;;;7.50;;
73276;SDS011;61501;43.316;5.372;2022-12-29T17:17:43;13.82;;;8.75;;
73276;SDS011;61501;43.316;5.372;2022-12-29T17:22:44;14.52;;;8.38;;
73276;SDS011;61501;43.316;5.372;2022-12-29T17:25:14;17.42;;;9.18;;
73276;SDS011;61501;43.316;5.372;2022-12-29T17:30:11;13.75;;;8.40;;
73276;SDS011;61501;43.316;5.372;2022-12-29T17:32:43;11.27;;;7.25;;
73276;SDS011;61501;43.316;5.372;2022-12-29T17:35:15;11.68;;;7.53;;
73276;SDS011;61501;43.316;5.372;2022-12-29T17:37:42;14.60;;;7.50;;
73276;SDS011;61501;43.316;5.372;2022-12-29T17:40:13;13.65;;;8.05;;
73276;SDS011;61501;43.316;5.372;2022-12-29T17:42:44;13.55;;;7.18;;
73276;SDS011;61501;43.316;5.372;2022-12-29T17:45:17;13.60;;;7.75;;
73276;SDS011;61501;43.316;5.372;2022-12-29T17:47:45;13.93;;;9.10;;
73276;SDS011;61501;43.316;5.372;2022-12-29T17:50:12;12.27;;;8.30;;
73276;SDS011;61501;43.316;5.372;2022-12-29T17:52:40;17.02;;;8.00;;
73276;SDS011;61501;43.316;5.372;2022-12-29T17:55:08;20.45;;;8.07;;
73276;SDS011;61501;43.316;5.372;2022-12-29T18:00:06;12.98;;;6.38;;